Terminal Aerodrome Forecast
Issued by NWS

Current Version | Previous Version | Graphics & Text | Print | Product List | Glossary On
Versions: 1 2 3 4 5 6 7 8 9 10 11 12 13 14 15 16 17 18 19
711
FTUS41 KILN 240534
TAFLUK
TAF
KLUK 240534Z 2406/2506 30005KT P6SM FEW040
     FM240800 00000KT 3SM BR SKC
      TEMPO 2409/2412 1/2SM FG VV002
     FM241300 25004KT P6SM SKC
     FM241700 28010G18KT P6SM SCT050
     FM250100 28004KT P6SM SKC=

USA.gov is the U.S. government's official web portal to all federal, state and local government web resources and services.